sensor_id;sensor_type;location;lat;lon;timestamp;P1;durP1;ratioP1;P2;durP2;ratioP2
64857;SDS011;51335;51.148;6.950;2022-12-13T00:00:06;32.83;;;16.65;;
64857;SDS011;51335;51.148;6.950;2022-12-13T00:00:36;37.88;;;17.58;;
64857;SDS011;51335;51.148;6.950;2022-12-13T00:01:13;39.42;;;17.42;;
64857;SDS011;51335;51.148;6.950;2022-12-13T00:01:45;36.15;;;16.42;;
64857;SDS011;51335;51.148;6.950;2022-12-13T00:02:16;37.88;;;16.60;;
64857;SDS011;51335;51.148;6.950;2022-12-13T00:02:47;35.40;;;17.27;;
64857;SDS011;51335;51.148;6.950;2022-12-13T00:03:17;35.17;;;17.13;;
64857;SDS011;51335;51.148;6.950;2022-12-13T00:03:47;37.17;;;17.15;;
64857;SDS011;51335;51.148;6.950;2022-12-13T00:04:19;33.90;;;17.00;;
64857;SDS011;51335;51.148;6.950;2022-12-13T00:04:50;37.97;;;17.90;;
64857;SDS011;51335;51.148;6.950;2022-12-13T00:05:21;34.53;;;16.85;;
64857;SDS011;51335;51.148;6.950;2022-12-13T00:05:51;39.75;;;17.17;;
64857;SDS011;51335;51.148;6.950;2022-12-13T00:06:21;31.95;;;15.98;;
64857;SDS011;51335;51.148;6.950;2022-12-13T00:06:52;36.08;;;16.38;;
64857;SDS011;51335;51.148;6.950;2022-12-13T00:07:22;33.92;;;17.48;;
64857;SDS011;51335;51.148;6.950;2022-12-13T00:07:53;38.30;;;17.55;;
64857;SDS011;51335;51.148;6.950;2022-12-13T00:08:23;35.83;;;17.42;;
64857;SDS011;51335;51.148;6.950;2022-12-13T00:08:53;32.10;;;16.13;;
64857;SDS011;51335;51.148;6.950;2022-12-13T00:09:23;39.35;;;17.20;;
64857;SDS011;51335;51.148;6.950;2022-12-13T00:09:54;36.22;;;17.30;;
64857;SDS011;51335;51.148;6.950;2022-12-13T00:10:24;37.63;;;17.00;;
64857;SDS011;51335;51.148;6.950;2022-12-13T00:11:01;41.58;;;18.38;;
64857;SDS011;51335;51.148;6.950;2022-12-13T00:11:32;36.15;;;17.80;;
64857;SDS011;51335;51.148;6.950;2022-12-13T00:12:03;35.88;;;17.15;;
64857;SDS011;51335;51.148;6.950;2022-12-13T00:12:33;37.42;;;17.58;;
64857;SDS011;51335;51.148;6.950;2022-12-13T00:13:03;38.58;;;17.92;;
64857;SDS011;51335;51.148;6.950;2022-12-13T00:13:33;42.72;;;18.63;;
64857;SDS011;51335;51.148;6.950;2022-12-13T00:14:04;40.88;;;19.33;;
64857;SDS011;51335;51.148;6.950;2022-12-13T00:14:34;35.65;;;17.63;;
64857;SDS011;51335;51.148;6.950;2022-12-13T00:15:04;41.42;;;17.67;;
64857;SDS011;51335;51.148;6.950;2022-12-13T00:15:35;36.67;;;18.75;;
64857;SDS011;51335;51.148;6.950;2022-12-13T00:16:06;35.47;;;17.65;;
64857;SDS011;51335;51.148;6.950;2022-12-13T00:16:39;39.40;;;18.13;;
64857;SDS011;51335;51.148;6.950;2022-12-13T00:17:10;39.90;;;17.75;;
64857;SDS011;51335;51.148;6.950;2022-12-13T00:17:40;37.13;;;18.13;;
64857;SDS011;51335;51.148;6.950;2022-12-13T00:18:10;37.65;;;18.90;;
64857;SDS011;51335;51.148;6.950;2022-12-13T00:18:40;36.30;;;17.83;;
64857;SDS011;51335;51.148;6.950;2022-12-13T00:19:11;36.50;;;18.27;;
64857;SDS011;51335;51.148;6.950;2022-12-13T00:19:41;37.75;;;17.90;;
64857;SDS011;51335;51.148;6.950;2022-12-13T00:20:11;35.38;;;18.02;;
64857;SDS011;51335;51.148;6.950;2022-12-13T00:20:42;34.28;;;16.95;;
64857;SDS011;51335;51.148;6.950;2022-12-13T00:21:13;37.88;;;17.80;;
64857;SDS011;51335;51.148;6.950;2022-12-13T00:21:45;39.95;;;18.20;;
64857;SDS011;51335;51.148;6.950;2022-12-13T00:22:16;36.45;;;18.20;;
64857;SDS011;51335;51.148;6.950;2022-12-13T00:22:46;36.38;;;17.10;;
64857;SDS011;51335;51.148;6.950;2022-12-13T00:23:16;36.33;;;17.98;;
64857;SDS011;51335;51.148;6.950;2022-12-13T00:23:47;36.65;;;18.05;;
64857;SDS011;51335;51.148;6.950;2022-12-13T00:24:17;35.33;;;17.00;;
64857;SDS011;51335;51.148;6.950;2022-12-13T00:24:48;38.70;;;18.00;;
64857;SDS011;51335;51.148;6.950;2022-12-13T00:25:18;37.83;;;17.83;;
64857;SDS011;51335;51.148;6.950;2022-12-13T00:25:48;35.33;;;16.98;;
64857;SDS011;51335;51.148;6.950;2022-12-13T00:26:20;34.70;;;17.40;;
64857;SDS011;51335;51.148;6.950;2022-12-13T00:27:00;33.45;;;16.67;;
64857;SDS011;51335;51.148;6.950;2022-12-13T00:27:31;35.53;;;17.25;;
64857;SDS011;51335;51.148;6.950;2022-12-13T00:28:01;37.92;;;17.70;;
64857;SDS011;51335;51.148;6.950;2022-12-13T00:28:31;36.28;;;17.85;;
64857;SDS011;51335;51.148;6.950;2022-12-13T00:29:03;39.40;;;17.25;;
64857;SDS011;51335;51.148;6.950;2022-12-13T00:29:35;35.28;;;17.33;;
64857;SDS011;51335;51.148;6.950;2022-12-13T00:30:05;36.47;;;18.25;;
64857;SDS011;51335;51.148;6.950;2022-12-13T00:30:36;34.50;;;17.33;;
64857;SDS011;51335;51.148;6.950;2022-12-13T00:31:06;37.08;;;17.80;;
64857;SDS011;51335;51.148;6.950;2022-12-13T00:31:37;37.88;;;17.73;;
64857;SDS011;51335;51.148;6.950;2022-12-13T00:32:08;33.53;;;17.08;;
64857;SDS011;51335;51.148;6.950;2022-12-13T00:32:38;36.17;;;17.45;;
64857;SDS011;51335;51.148;6.950;2022-12-13T00:33:08;36.17;;;17.23;;
64857;SDS011;51335;51.148;6.950;2022-12-13T00:33:38;34.75;;;16.65;;
64857;SDS011;51335;51.148;6.950;2022-12-13T00:34:09;34.70;;;17.13;;
64857;SDS011;51335;51.148;6.950;2022-12-13T00:34:39;37.78;;;17.85;;
64857;SDS011;51335;51.148;6.950;2022-12-13T00:35:09;33.38;;;16.77;;
64857;SDS011;51335;51.148;6.950;2022-12-13T00:35:40;35.83;;;17.55;;
64857;SDS011;51335;51.148;6.950;2022-12-13T00:36:10;34.00;;;16.73;;
64857;SDS011;51335;51.148;6.950;2022-12-13T00:36:41;32.75;;;16.52;;
64857;SDS011;51335;51.148;6.950;2022-12-13T00:37:11;38.42;;;17.52;;
64857;SDS011;51335;51.148;6.950;2022-12-13T00:37:41;35.55;;;17.85;;
64857;SDS011;51335;51.148;6.950;2022-12-13T00:38:11;40.10;;;18.05;;
64857;SDS011;51335;51.148;6.950;2022-12-13T00:38:42;34.97;;;17.27;;
64857;SDS011;51335;51.148;6.950;2022-12-13T00:39:13;35.63;;;17.63;;
64857;SDS011;51335;51.148;6.950;2022-12-13T00:39:43;40.45;;;17.88;;
64857;SDS011;51335;51.148;6.950;2022-12-13T00:40:14;33.13;;;17.20;;
64857;SDS011;51335;51.148;6.950;2022-12-13T00:40:44;35.85;;;18.40;;
64857;SDS011;51335;51.148;6.950;2022-12-13T00:41:16;36.38;;;17.25;;
64857;SDS011;51335;51.148;6.950;2022-12-13T00:41:47;33.90;;;16.48;;
64857;SDS011;51335;51.148;6.950;2022-12-13T00:42:18;31.73;;;16.70;;
64857;SDS011;51335;51.148;6.950;2022-12-13T00:42:48;33.60;;;17.10;;
64857;SDS011;51335;51.148;6.950;2022-12-13T00:43:18;33.40;;;16.30;;
64857;SDS011;51335;51.148;6.950;2022-12-13T00:43:49;34.35;;;16.95;;
64857;SDS011;51335;51.148;6.950;2022-12-13T00:44:19;34.75;;;17.25;;
64857;SDS011;51335;51.148;6.950;2022-12-13T00:44:49;34.28;;;16.75;;
64857;SDS011;51335;51.148;6.950;2022-12-13T00:45:19;34.88;;;17.13;;
64857;SDS011;51335;51.148;6.950;2022-12-13T00:45:50;39.63;;;18.02;;
64857;SDS011;51335;51.148;6.950;2022-12-13T00:46:20;34.30;;;17.38;;
64857;SDS011;51335;51.148;6.950;2022-12-13T00:46:50;35.15;;;16.77;;
64857;SDS011;51335;51.148;6.950;2022-12-13T00:47:21;34.90;;;16.75;;
64857;SDS011;51335;51.148;6.950;2022-12-13T00:47:51;29.92;;;16.17;;
64857;SDS011;51335;51.148;6.950;2022-12-13T00:48:21;35.05;;;16.38;;
64857;SDS011;51335;51.148;6.950;2022-12-13T00:48:52;33.10;;;17.23;;
64857;SDS011;51335;51.148;6.950;2022-12-13T00:49:27;34.42;;;17.23;;
64857;SDS011;51335;51.148;6.950;2022-12-13T00:49:57;33.40;;;16.90;;
64857;SDS011;51335;51.148;6.950;2022-12-13T00:50:27;37.10;;;17.60;;
64857;SDS011;51335;51.148;6.950;2022-12-13T00:50:58;37.33;;;17.27;;
64857;SDS011;51335;51.148;6.950;2022-12-13T00:51:29;33.58;;;16.50;;
64857;SDS011;51335;51.148;6.950;2022-12-13T00:52:00;33.30;;;17.10;;
64857;SDS011;51335;51.148;6.950;2022-12-13T00:52:30;33.78;;;16.10;;
64857;SDS011;51335;51.148;6.950;2022-12-13T00:53:02;31.83;;;16.13;;
64857;SDS011;51335;51.148;6.950;2022-12-13T00:53:33;35.22;;;16.55;;
64857;SDS011;51335;51.148;6.950;2022-12-13T00:54:03;34.70;;;16.40;;
64857;SDS011;51335;51.148;6.950;2022-12-13T00:54:34;33.42;;;16.45;;
64857;SDS011;51335;51.148;6.950;2022-12-13T00:55:05;31.67;;;16.02;;
64857;SDS011;51335;51.148;6.950;2022-12-13T00:55:39;32.90;;;16.63;;
64857;SDS011;51335;51.148;6.950;2022-12-13T00:56:10;36.40;;;17.35;;
64857;SDS011;51335;51.148;6.950;2022-12-13T00:56:46;34.15;;;16.15;;
64857;SDS011;51335;51.148;6.950;2022-12-13T00:57:17;32.67;;;16.40;;
64857;SDS011;51335;51.148;6.950;2022-12-13T00:57:47;32.90;;;16.70;;
64857;SDS011;51335;51.148;6.950;2022-12-13T00:58:17;33.08;;;15.88;;
64857;SDS011;51335;51.148;6.950;2022-12-13T00:58:48;32.83;;;16.45;;
64857;SDS011;51335;51.148;6.950;2022-12-13T00:59:19;31.30;;;15.32;;
64857;SDS011;51335;51.148;6.950;2022-12-13T00:59:49;33.55;;;16.70;;
64857;SDS011;51335;51.148;6.950;2022-12-13T01:00:19;32.70;;;15.88;;
64857;SDS011;51335;51.148;6.950;2022-12-13T01:00:50;34.67;;;16.90;;
64857;SDS011;51335;51.148;6.950;2022-12-13T01:01:25;32.70;;;15.88;;
64857;SDS011;51335;51.148;6.950;2022-12-13T01:01:57;35.88;;;16.08;;
64857;SDS011;51335;51.148;6.950;2022-12-13T01:02:27;30.95;;;15.70;;
64857;SDS011;51335;51.148;6.950;2022-12-13T01:02:57;31.45;;;15.48;;
64857;SDS011;51335;51.148;6.950;2022-12-13T01:03:28;30.42;;;15.35;;
64857;SDS011;51335;51.148;6.950;2022-12-13T01:03:59;32.13;;;16.38;;
64857;SDS011;51335;51.148;6.950;2022-12-13T01:04:30;32.15;;;16.15;;
64857;SDS011;51335;51.148;6.950;2022-12-13T01:05:00;35.22;;;17.20;;
64857;SDS011;51335;51.148;6.950;2022-12-13T01:05:33;33.30;;;16.15;;
64857;SDS011;51335;51.148;6.950;2022-12-13T01:06:07;33.25;;;15.77;;
64857;SDS011;51335;51.148;6.950;2022-12-13T01:06:58;31.13;;;15.50;;
64857;SDS011;51335;51.148;6.950;2022-12-13T01:07:28;30.38;;;15.13;;
64857;SDS011;51335;51.148;6.950;2022-12-13T01:07:59;30.52;;;15.63;;
64857;SDS011;51335;51.148;6.950;2022-12-13T01:08:29;35.47;;;16.25;;
64857;SDS011;51335;51.148;6.950;2022-12-13T01:08:59;30.77;;;15.80;;
64857;SDS011;51335;51.148;6.950;2022-12-13T01:09:30;31.42;;;15.70;;
64857;SDS011;51335;51.148;6.950;2022-12-13T01:10:00;35.80;;;17.23;;
64857;SDS011;51335;51.148;6.950;2022-12-13T01:10:30;33.85;;;16.33;;
64857;SDS011;51335;51.148;6.950;2022-12-13T01:11:02;30.83;;;15.85;;
64857;SDS011;51335;51.148;6.950;2022-12-13T01:11:33;33.25;;;16.73;;
64857;SDS011;51335;51.148;6.950;2022-12-13T01:12:03;35.10;;;16.20;;
64857;SDS011;51335;51.148;6.950;2022-12-13T01:12:35;34.35;;;16.35;;
64857;SDS011;51335;51.148;6.950;2022-12-13T01:13:05;34.20;;;16.63;;
64857;SDS011;51335;51.148;6.950;2022-12-13T01:13:35;31.38;;;15.73;;
64857;SDS011;51335;51.148;6.950;2022-12-13T01:14:06;34.17;;;16.65;;
64857;SDS011;51335;51.148;6.950;2022-12-13T01:14:37;32.78;;;16.08;;
64857;SDS011;51335;51.148;6.950;2022-12-13T01:15:09;34.08;;;15.70;;
64857;SDS011;51335;51.148;6.950;2022-12-13T01:15:43;33.42;;;16.65;;
64857;SDS011;51335;51.148;6.950;2022-12-13T01:16:14;33.10;;;15.75;;
64857;SDS011;51335;51.148;6.950;2022-12-13T01:16:45;35.53;;;17.02;;
64857;SDS011;51335;51.148;6.950;2022-12-13T01:17:15;31.55;;;16.30;;
64857;SDS011;51335;51.148;6.950;2022-12-13T01:17:45;37.35;;;16.83;;
64857;SDS011;51335;51.148;6.950;2022-12-13T01:18:15;32.70;;;16.67;;
64857;SDS011;51335;51.148;6.950;2022-12-13T01:18:46;31.13;;;16.02;;
64857;SDS011;51335;51.148;6.950;2022-12-13T01:19:16;35.67;;;17.05;;
64857;SDS011;51335;51.148;6.950;2022-12-13T01:19:46;35.53;;;16.85;;
64857;SDS011;51335;51.148;6.950;2022-12-13T01:20:16;36.67;;;16.83;;
64857;SDS011;51335;51.148;6.950;2022-12-13T01:21:00;37.53;;;16.90;;
64857;SDS011;51335;51.148;6.950;2022-12-13T01:21:32;32.33;;;15.70;;
64857;SDS011;51335;51.148;6.950;2022-12-13T01:22:03;35.45;;;17.25;;
64857;SDS011;51335;51.148;6.950;2022-12-13T01:22:34;33.53;;;16.27;;
64857;SDS011;51335;51.148;6.950;2022-12-13T01:23:05;33.67;;;15.65;;
64857;SDS011;51335;51.148;6.950;2022-12-13T01:23:35;32.28;;;16.00;;
64857;SDS011;51335;51.148;6.950;2022-12-13T01:24:06;33.63;;;16.42;;
64857;SDS011;51335;51.148;6.950;2022-12-13T01:24:39;34.42;;;16.65;;
64857;SDS011;51335;51.148;6.950;2022-12-13T01:25:10;33.40;;;16.00;;
64857;SDS011;51335;51.148;6.950;2022-12-13T01:25:40;34.60;;;16.27;;
64857;SDS011;51335;51.148;6.950;2022-12-13T01:26:14;31.88;;;16.17;;
64857;SDS011;51335;51.148;6.950;2022-12-13T01:26:46;33.60;;;15.82;;
64857;SDS011;51335;51.148;6.950;2022-12-13T01:27:17;35.75;;;16.42;;
64857;SDS011;51335;51.148;6.950;2022-12-13T01:27:47;34.47;;;16.55;;
64857;SDS011;51335;51.148;6.950;2022-12-13T01:28:18;30.83;;;15.60;;
64857;SDS011;51335;51.148;6.950;2022-12-13T01:28:48;31.48;;;15.98;;
64857;SDS011;51335;51.148;6.950;2022-12-13T01:29:19;31.63;;;16.10;;
64857;SDS011;51335;51.148;6.950;2022-12-13T01:29:50;34.42;;;16.33;;
64857;SDS011;51335;51.148;6.950;2022-12-13T01:30:20;33.80;;;16.17;;
64857;SDS011;51335;51.148;6.950;2022-12-13T01:30:57;35.30;;;17.02;;
64857;SDS011;51335;51.148;6.950;2022-12-13T01:31:29;33.92;;;16.33;;
64857;SDS011;51335;51.148;6.950;2022-12-13T01:31:59;36.10;;;16.25;;
64857;SDS011;51335;51.148;6.950;2022-12-13T01:32:29;36.92;;;16.83;;
64857;SDS011;51335;51.148;6.950;2022-12-13T01:33:00;35.90;;;16.27;;
64857;SDS011;51335;51.148;6.950;2022-12-13T01:33:30;39.00;;;18.08;;
64857;SDS011;51335;51.148;6.950;2022-12-13T01:34:01;38.78;;;17.55;;
64857;SDS011;51335;51.148;6.950;2022-12-13T01:34:31;34.05;;;17.20;;
64857;SDS011;51335;51.148;6.950;2022-12-13T01:35:02;34.80;;;17.88;;
64857;SDS011;51335;51.148;6.950;2022-12-13T01:35:32;36.60;;;17.65;;
64857;SDS011;51335;51.148;6.950;2022-12-13T01:36:04;36.63;;;17.88;;
64857;SDS011;51335;51.148;6.950;2022-12-13T01:36:37;35.75;;;17.10;;
64857;SDS011;51335;51.148;6.950;2022-12-13T01:37:08;35.63;;;16.98;;
64857;SDS011;51335;51.148;6.950;2022-12-13T01:37:38;35.53;;;17.08;;
64857;SDS011;51335;51.148;6.950;2022-12-13T01:38:08;36.92;;;16.88;;
64857;SDS011;51335;51.148;6.950;2022-12-13T01:38:39;36.22;;;16.80;;
64857;SDS011;51335;51.148;6.950;2022-12-13T01:39:10;37.10;;;18.00;;
64857;SDS011;51335;51.148;6.950;2022-12-13T01:39:42;35.20;;;16.05;;
64857;SDS011;51335;51.148;6.950;2022-12-13T01:40:12;33.58;;;15.50;;
64857;SDS011;51335;51.148;6.950;2022-12-13T01:40:47;32.22;;;16.35;;
64857;SDS011;51335;51.148;6.950;2022-12-13T01:41:19;37.70;;;16.77;;
64857;SDS011;51335;51.148;6.950;2022-12-13T01:41:51;33.72;;;16.48;;
64857;SDS011;51335;51.148;6.950;2022-12-13T01:42:22;34.00;;;17.05;;
64857;SDS011;51335;51.148;6.950;2022-12-13T01:42:52;33.88;;;16.52;;
64857;SDS011;51335;51.148;6.950;2022-12-13T01:43:48;36.30;;;17.67;;
64857;SDS011;51335;51.148;6.950;2022-12-13T01:45:26;29.13;;;14.65;;
64857;SDS011;51335;51.148;6.950;2022-12-13T01:45:57;27.73;;;14.68;;
64857;SDS011;51335;51.148;6.950;2022-12-13T01:46:28;32.65;;;16.10;;
64857;SDS011;51335;51.148;6.950;2022-12-13T01:46:59;31.90;;;15.70;;
64857;SDS011;51335;51.148;6.950;2022-12-13T01:47:45;33.20;;;15.77;;
64857;SDS011;51335;51.148;6.950;2022-12-13T01:48:20;33.13;;;15.52;;
64857;SDS011;51335;51.148;6.950;2022-12-13T01:49:37;33.30;;;15.20;;
64857;SDS011;51335;51.148;6.950;2022-12-13T01:50:08;32.15;;;16.02;;
64857;SDS011;51335;51.148;6.950;2022-12-13T01:50:43;34.47;;;16.65;;
64857;SDS011;51335;51.148;6.950;2022-12-13T01:51:17;37.63;;;17.02;;
64857;SDS011;51335;51.148;6.950;2022-12-13T01:51:51;33.08;;;16.42;;
64857;SDS011;51335;51.148;6.950;2022-12-13T01:52:30;31.10;;;15.77;;
64857;SDS011;51335;51.148;6.950;2022-12-13T01:53:03;32.88;;;16.45;;
64857;SDS011;51335;51.148;6.950;2022-12-13T01:53:35;37.97;;;17.42;;
64857;SDS011;51335;51.148;6.950;2022-12-13T01:54:10;32.75;;;16.30;;
64857;SDS011;51335;51.148;6.950;2022-12-13T01:54:45;34.30;;;17.13;;
64857;SDS011;51335;51.148;6.950;2022-12-13T01:55:19;35.75;;;17.13;;
64857;SDS011;51335;51.148;6.950;2022-12-13T01:55:52;35.53;;;16.13;;
64857;SDS011;51335;51.148;6.950;2022-12-13T01:56:27;33.33;;;16.95;;
64857;SDS011;51335;51.148;6.950;2022-12-13T01:57:03;33.00;;;16.17;;
64857;SDS011;51335;51.148;6.950;2022-12-13T01:57:37;32.33;;;15.55;;
64857;SDS011;51335;51.148;6.950;2022-12-13T01:58:11;34.50;;;16.60;;
64857;SDS011;51335;51.148;6.950;2022-12-13T01:58:43;33.15;;;16.38;;
64857;SDS011;51335;51.148;6.950;2022-12-13T01:59:16;33.90;;;16.50;;
64857;SDS011;51335;51.148;6.950;2022-12-13T01:59:47;36.25;;;16.88;;
64857;SDS011;51335;51.148;6.950;2022-12-13T02:00:19;35.65;;;17.13;;
64857;SDS011;51335;51.148;6.950;2022-12-13T02:00:49;40.03;;;17.58;;
64857;SDS011;51335;51.148;6.950;2022-12-13T02:01:20;37.45;;;16.83;;
64857;SDS011;51335;51.148;6.950;2022-12-13T02:01:51;37.95;;;18.10;;
64857;SDS011;51335;51.148;6.950;2022-12-13T02:02:22;35.38;;;17.98;;
64857;SDS011;51335;51.148;6.950;2022-12-13T02:02:53;41.28;;;18.20;;
64857;SDS011;51335;51.148;6.950;2022-12-13T02:03:26;35.05;;;17.05;;
64857;SDS011;51335;51.148;6.950;2022-12-13T02:03:57;39.13;;;16.88;;
64857;SDS011;51335;51.148;6.950;2022-12-13T02:05:33;31.15;;;15.60;;
64857;SDS011;51335;51.148;6.950;2022-12-13T02:06:12;33.05;;;15.18;;
64857;SDS011;51335;51.148;6.950;2022-12-13T02:06:46;34.28;;;16.40;;
64857;SDS011;51335;51.148;6.950;2022-12-13T02:07:17;30.63;;;15.18;;
64857;SDS011;51335;51.148;6.950;2022-12-13T02:07:50;37.72;;;16.45;;
64857;SDS011;51335;51.148;6.950;2022-12-13T02:08:21;34.53;;;17.00;;
64857;SDS011;51335;51.148;6.950;2022-12-13T02:08:52;36.17;;;16.33;;
64857;SDS011;51335;51.148;6.950;2022-12-13T02:09:22;35.30;;;16.13;;
64857;SDS011;51335;51.148;6.950;2022-12-13T02:09:54;36.83;;;17.50;;
64857;SDS011;51335;51.148;6.950;2022-12-13T02:10:26;37.60;;;17.55;;
64857;SDS011;51335;51.148;6.950;2022-12-13T02:10:58;36.25;;;16.95;;
64857;SDS011;51335;51.148;6.950;2022-12-13T02:11:29;38.45;;;17.77;;
64857;SDS011;51335;51.148;6.950;2022-12-13T02:12:00;35.10;;;17.15;;
64857;SDS011;51335;51.148;6.950;2022-12-13T02:12:32;33.35;;;16.23;;
64857;SDS011;51335;51.148;6.950;2022-12-13T02:13:05;35.63;;;16.30;;
64857;SDS011;51335;51.148;6.950;2022-12-13T02:13:35;38.88;;;17.98;;
64857;SDS011;51335;51.148;6.950;2022-12-13T02:14:05;35.05;;;17.08;;
64857;SDS011;51335;51.148;6.950;2022-12-13T02:14:36;34.42;;;17.30;;
64857;SDS011;51335;51.148;6.950;2022-12-13T02:15:09;33.65;;;16.98;;
64857;SDS011;51335;51.148;6.950;2022-12-13T02:16:31;35.33;;;16.58;;
64857;SDS011;51335;51.148;6.950;2022-12-13T02:27:03;30.20;;;13.43;;
64857;SDS011;51335;51.148;6.950;2022-12-13T02:27:50;29.77;;;13.45;;
64857;SDS011;51335;51.148;6.950;2022-12-13T02:30:19;30.95;;;13.15;;
64857;SDS011;51335;51.148;6.950;2022-12-13T02:31:02;26.35;;;13.10;;
64857;SDS011;51335;51.148;6.950;2022-12-13T02:32:16;30.70;;;13.00;;
64857;SDS011;51335;51.148;6.950;2022-12-13T02:33:07;39.03;;;14.45;;
64857;SDS011;51335;51.148;6.950;2022-12-13T02:34:56;32.65;;;15.13;;
64857;SDS011;51335;51.148;6.950;2022-12-13T02:37:17;29.80;;;14.10;;
64857;SDS011;51335;51.148;6.950;2022-12-13T02:38:04;30.73;;;15.07;;
64857;SDS011;51335;51.148;6.950;2022-12-13T02:39:31;32.50;;;15.00;;
64857;SDS011;51335;51.148;6.950;2022-12-13T02:40:06;33.05;;;15.55;;
64857;SDS011;51335;51.148;6.950;2022-12-13T02:40:53;33.00;;;15.88;;
64857;SDS011;51335;51.148;6.950;2022-12-13T02:42:13;33.65;;;15.77;;
64857;SDS011;51335;51.148;6.950;2022-12-13T02:42:58;33.58;;;16.17;;
64857;SDS011;51335;51.148;6.950;2022-12-13T02:43:44;34.78;;;15.32;;
64857;SDS011;51335;51.148;6.950;2022-12-13T02:45:00;32.03;;;13.80;;
64857;SDS011;51335;51.148;6.950;2022-12-13T02:45:52;28.05;;;14.40;;
64857;SDS011;51335;51.148;6.950;2022-12-13T02:46:25;31.13;;;14.30;;
64857;SDS011;51335;51.148;6.950;2022-12-13T02:47:03;32.30;;;14.90;;
64857;SDS011;51335;51.148;6.950;2022-12-13T02:47:38;34.10;;;15.07;;
64857;SDS011;51335;51.148;6.950;2022-12-13T02:48:11;36.53;;;16.05;;
64857;SDS011;51335;51.148;6.950;2022-12-13T02:48:44;38.00;;;15.93;;
64857;SDS011;51335;51.148;6.950;2022-12-13T02:49:17;35.42;;;16.33;;
64857;SDS011;51335;51.148;6.950;2022-12-13T02:49:51;35.53;;;16.48;;
64857;SDS011;51335;51.148;6.950;2022-12-13T02:50:25;39.72;;;16.23;;
64857;SDS011;51335;51.148;6.950;2022-12-13T02:50:57;36.90;;;16.98;;
64857;SDS011;51335;51.148;6.950;2022-12-13T02:51:29;35.97;;;16.50;;
64857;SDS011;51335;51.148;6.950;2022-12-13T02:52:00;35.25;;;16.42;;
64857;SDS011;51335;51.148;6.950;2022-12-13T02:52:30;36.42;;;17.48;;
64857;SDS011;51335;51.148;6.950;2022-12-13T02:53:01;37.80;;;16.77;;
64857;SDS011;51335;51.148;6.950;2022-12-13T02:53:33;35.25;;;16.42;;
64857;SDS011;51335;51.148;6.950;2022-12-13T02:54:06;37.47;;;16.65;;
64857;SDS011;51335;51.148;6.950;2022-12-13T02:54:36;39.45;;;17.98;;
64857;SDS011;51335;51.148;6.950;2022-12-13T02:55:08;39.70;;;17.95;;
64857;SDS011;51335;51.148;6.950;2022-12-13T02:55:42;43.08;;;17.42;;
64857;SDS011;51335;51.148;6.950;2022-12-13T02:56:13;41.60;;;17.75;;
64857;SDS011;51335;51.148;6.950;2022-12-13T02:56:56;33.90;;;16.75;;
64857;SDS011;51335;51.148;6.950;2022-12-13T02:57:31;34.13;;;16.10;;
64857;SDS011;51335;51.148;6.950;2022-12-13T02:58:06;34.75;;;15.95;;
64857;SDS011;51335;51.148;6.950;2022-12-13T02:58:42;35.92;;;17.08;;
64857;SDS011;51335;51.148;6.950;2022-12-13T02:59:16;36.75;;;16.58;;
64857;SDS011;51335;51.148;6.950;2022-12-13T02:59:46;38.65;;;17.60;;
64857;SDS011;51335;51.148;6.950;2022-12-13T03:00:31;37.72;;;16.98;;
64857;SDS011;51335;51.148;6.950;2022-12-13T03:01:19;32.97;;;15.23;;
64857;SDS011;51335;51.148;6.950;2022-12-13T03:04:53;34.50;;;14.38;;
64857;SDS011;51335;51.148;6.950;2022-12-13T03:07:21;30.77;;;13.55;;
64857;SDS011;51335;51.148;6.950;2022-12-13T03:10:37;31.85;;;14.60;;
64857;SDS011;51335;51.148;6.950;2022-12-13T03:11:14;34.50;;;16.15;;
64857;SDS011;51335;51.148;6.950;2022-12-13T03:12:53;32.97;;;15.15;;
64857;SDS011;51335;51.148;6.950;2022-12-13T03:13:54;31.83;;;14.25;;
64857;SDS011;51335;51.148;6.950;2022-12-13T03:14:28;27.30;;;13.57;;
64857;SDS011;51335;51.148;6.950;2022-12-13T03:15:24;37.03;;;14.45;;
64857;SDS011;51335;51.148;6.950;2022-12-13T03:15:59;32.65;;;14.85;;
64857;SDS011;51335;51.148;6.950;2022-12-13T03:16:37;29.60;;;14.18;;
64857;SDS011;51335;51.148;6.950;2022-12-13T03:17:12;31.02;;;14.60;;
64857;SDS011;51335;51.148;6.950;2022-12-13T03:18:27;34.53;;;15.43;;
64857;SDS011;51335;51.148;6.950;2022-12-13T03:18:42;32.58;;;14.75;;
64857;SDS011;51335;51.148;6.950;2022-12-13T03:19:13;28.92;;;15.15;;
64857;SDS011;51335;51.148;6.950;2022-12-13T03:19:44;33.13;;;16.08;;
64857;SDS011;51335;51.148;6.950;2022-12-13T03:20:16;34.08;;;15.27;;
64857;SDS011;51335;51.148;6.950;2022-12-13T03:20:52;38.40;;;15.60;;
64857;SDS011;51335;51.148;6.950;2022-12-13T03:21:25;35.40;;;16.60;;
64857;SDS011;51335;51.148;6.950;2022-12-13T03:21:55;34.13;;;14.75;;
64857;SDS011;51335;51.148;6.950;2022-12-13T03:22:26;33.10;;;16.05;;
64857;SDS011;51335;51.148;6.950;2022-12-13T03:22:56;34.75;;;16.50;;
64857;SDS011;51335;51.148;6.950;2022-12-13T03:23:27;36.40;;;16.25;;
64857;SDS011;51335;51.148;6.950;2022-12-13T03:23:58;35.63;;;17.63;;
64857;SDS011;51335;51.148;6.950;2022-12-13T03:24:28;40.95;;;17.08;;
64857;SDS011;51335;51.148;6.950;2022-12-13T03:24:58;35.85;;;17.58;;
64857;SDS011;51335;51.148;6.950;2022-12-13T03:25:29;37.42;;;16.58;;
64857;SDS011;51335;51.148;6.950;2022-12-13T03:26:02;37.03;;;16.30;;
64857;SDS011;51335;51.148;6.950;2022-12-13T03:26:37;34.60;;;16.27;;
64857;SDS011;51335;51.148;6.950;2022-12-13T03:27:08;38.83;;;16.73;;
64857;SDS011;51335;51.148;6.950;2022-12-13T03:27:39;36.22;;;17.00;;
64857;SDS011;51335;51.148;6.950;2022-12-13T03:28:10;32.88;;;16.05;;
64857;SDS011;51335;51.148;6.950;2022-12-13T03:28:40;35.88;;;16.83;;
64857;SDS011;51335;51.148;6.950;2022-12-13T03:29:10;35.80;;;17.40;;
64857;SDS011;51335;51.148;6.950;2022-12-13T03:29:41;34.47;;;17.42;;
64857;SDS011;51335;51.148;6.950;2022-12-13T03:30:12;40.75;;;18.05;;
64857;SDS011;51335;51.148;6.950;2022-12-13T03:30:42;36.25;;;17.80;;
64857;SDS011;51335;51.148;6.950;2022-12-13T03:31:13;40.30;;;17.58;;
64857;SDS011;51335;51.148;6.950;2022-12-13T03:31:43;40.55;;;17.85;;
64857;SDS011;51335;51.148;6.950;2022-12-13T03:32:13;38.88;;;16.30;;
64857;SDS011;51335;51.148;6.950;2022-12-13T03:32:44;41.70;;;17.65;;
64857;SDS011;51335;51.148;6.950;2022-12-13T03:33:14;37.58;;;16.90;;
64857;SDS011;51335;51.148;6.950;2022-12-13T03:33:44;37.95;;;17.45;;
64857;SDS011;51335;51.148;6.950;2022-12-13T03:34:15;35.83;;;17.95;;
64857;SDS011;51335;51.148;6.950;2022-12-13T03:34:45;36.33;;;17.08;;
64857;SDS011;51335;51.148;6.950;2022-12-13T03:35:15;38.97;;;17.05;;
64857;SDS011;51335;51.148;6.950;2022-12-13T03:35:46;40.72;;;18.00;;
64857;SDS011;51335;51.148;6.950;2022-12-13T03:36:16;34.60;;;17.00;;
64857;SDS011;51335;51.148;6.950;2022-12-13T03:36:47;36.40;;;16.80;;
64857;SDS011;51335;51.148;6.950;2022-12-13T03:37:18;36.55;;;16.52;;
64857;SDS011;51335;51.148;6.950;2022-12-13T03:37:48;35.67;;;17.02;;
64857;SDS011;51335;51.148;6.950;2022-12-13T03:38:19;39.00;;;17.13;;
64857;SDS011;51335;51.148;6.950;2022-12-13T03:38:50;37.40;;;16.42;;
64857;SDS011;51335;51.148;6.950;2022-12-13T03:39:22;39.28;;;17.45;;
64857;SDS011;51335;51.148;6.950;2022-12-13T03:39:52;38.72;;;17.15;;